CDT,Max TemperatureF,Mean TemperatureF,Min TemperatureF,Max Dew PointF,MeanDew PointF,Min DewpointF,Max Humidity, Mean Humidity, Min Humidity, Max Sea Level PressureIn, Mean Sea Level PressureIn, Min Sea Level PressureIn, Max VisibilityMiles, Mean VisibilityMiles, Min VisibilityMiles, Max Wind SpeedMPH, Mean Wind SpeedMPH, Max Gust SpeedMPH,PrecipitationIn, CloudCover, Events, WindDirDegrees
2011-10-1,63,51,38,39,36,32,92,62,32,30.35,30.28,30.19,10,10,10,13,4,20,0.00,0,,360
2011-10-2,70,53,36,43,37,33,92,59,26,30.33,30.26,30.19,10,10,9,10,2,14,0.00,0,,343
2011-10-3,78,60,41,49,42,37,86,56,26,30.26,30.21,30.17,10,10,10,10,3,15,0.00,0,,5
2011-10-4,80,63,45,53,47,42,93,62,30,30.32,30.25,30.19,10,10,10,7,1,10,0.00,0,,100
2011-10-5,80,64,47,50,47,45,89,60,30,30.27,30.21,30.15,10,10,10,12,2,14,0.00,0,,192
2011-10-6,82,67,51,54,49,47,83,57,31,30.25,30.19,30.15,10,10,9,15,6,21,0.00,0,,139
2011-10-7,84,71,57,56,51,48,80,55,29,30.29,30.22,30.17,10,10,10,23,10,32,0.00,0,,166
2011-10-8,82,70,58,57,50,43,80,54,28,30.31,30.25,30.22,10,10,10,21,8,26,0.00,0,,175
2011-10-9,80,66,52,52,47,39,89,57,25,30.34,30.26,30.19,10,10,10,13,3,21,0.00,0,,113
2011-10-10,78,64,49,53,50,44,83,62,41,30.18,30.11,30.03,10,10,9,12,3,14,0.00,0,,159
2011-10-11,78,67,56,64,57,52,100,75,50,30.02,29.95,29.87,10,8,1,12,3,16,0.14,3,Rain,193
2011-10-12,70,64,57,61,58,51,97,82,66,29.88,29.76,29.63,10,8,2,13,4,15,0.18,4,Rain,168
2011-10-13,70,61,52,61,54,41,97,71,44,29.65,29.60,29.55,10,7,2,18,7,28,0.17,6,Rain,282
2011-10-14,63,56,48,43,41,39,80,63,46,29.86,29.74,29.65,10,10,10,25,11,37,0.00,1,,282
2011-10-15,65,54,43,39,37,32,76,53,30,30.00,29.94,29.86,10,10,10,23,9,33,0.00,1,,273
2011-10-16,63,54,45,45,39,35,71,56,40,29.98,29.88,29.79,10,10,10,18,6,25,T,0,,258
2011-10-17,55,47,38,39,34,30,82,62,41,29.99,29.95,29.92,10,10,10,14,7,32,T,3,Rain,271
2011-10-18,54,47,39,39,36,33,92,69,46,29.89,29.86,29.84,10,10,10,14,4,22,0.00,3,,336
2011-10-19,48,46,43,39,37,33,83,70,56,29.83,29.77,29.70,10,10,10,20,11,31,0.03,8,Rain,350
2011-10-20,48,43,37,34,33,30,79,68,56,29.96,29.80,29.69,10,10,10,20,11,29,0.00,5,,299
2011-10-21,59,46,33,33,30,27,82,56,30,30.14,30.09,29.98,10,10,10,14,4,17,0.00,0,,306
2011-10-22,71,54,37,40,36,30,82,57,31,30.11,30.06,30.00,10,10,6,12,3,17,0.00,0,,250
2011-10-23,69,56,42,46,42,38,89,64,39,30.02,29.96,29.88,10,10,8,16,5,24,0.04,2,,210
2011-10-24,65,55,44,51,41,35,89,63,36,30.16,30.08,29.93,10,10,5,13,6,15,T,1,Rain,231
2011-10-25,79,65,51,58,46,38,78,53,27,30.09,29.86,29.71,10,10,7,32,14,40,0.08,2,Rain-Thunderstorm,193
2011-10-26,61,53,45,58,45,39,93,82,71,30.00,29.92,29.75,10,8,2,13,6,20,T,7,Rain,356
2011-10-27,55,45,35,39,35,28,92,65,38,30.17,30.07,29.96,10,10,10,12,4,16,T,4,Rain,339
2011-10-28,58,45,32,38,30,22,92,58,24,30.22,30.15,30.08,10,9,5,20,3,24,T,2,,235
2011-10-29,57,44,30,34,26,20,85,55,24,30.15,30.10,30.07,10,10,6,16,4,24,0.00,0,,289
2011-10-30,52,45,37,43,34,23,96,69,41,30.10,30.02,29.94,10,10,5,25,9,32,0.03,4,Rain,185
2011-10-31,54,43,31,37,33,30,100,73,45,30.16,30.07,30.00,10,8,1,13,3,18,0.00,1,,280